createdAt,value
2023-03-23T15:58:36.483Z,18.48
2023-03-23T16:01:13.051Z,18.46
2023-03-23T16:03:47.040Z,18.44
2023-03-23T16:06:25.324Z,18.41
2023-03-23T16:08:57.007Z,18.38
2023-03-23T16:11:28.753Z,18.34
2023-03-23T16:13:59.595Z,18.29
2023-03-23T16:16:33.794Z,18.25
2023-03-23T16:19:07.506Z,18.22
2023-03-23T16:21:38.750Z,18.19
2023-03-23T16:24:10.055Z,18.15
2023-03-23T16:26:41.762Z,18.12
2023-03-23T16:29:20.510Z,18.09
2023-03-23T16:31:55.306Z,18.05
2023-03-23T16:34:29.323Z,18.02
2023-03-23T16:37:00.637Z,17.97
2023-03-23T16:39:31.336Z,17.92
2023-03-23T16:42:02.439Z,17.88
2023-03-23T16:44:32.994Z,17.85
2023-03-23T16:47:03.810Z,17.81
2023-03-23T16:49:34.940Z,17.79
2023-03-23T16:52:05.997Z,17.76
2023-03-23T16:54:37.543Z,17.73
2023-03-23T16:57:08.914Z,17.70
2023-03-23T16:59:40.138Z,17.65
2023-03-23T17:02:12.082Z,17.59
2023-03-23T17:04:45.973Z,17.52
2023-03-23T17:07:16.623Z,17.48
2023-03-23T17:09:48.426Z,17.43
2023-03-23T17:12:18.992Z,17.38
2023-03-23T17:14:49.961Z,17.33
2023-03-23T17:17:20.723Z,17.27
2023-03-23T17:19:52.190Z,17.22
2023-03-23T17:22:22.903Z,17.18
2023-03-23T17:24:53.866Z,17.13
2023-03-23T17:27:25.151Z,17.06
2023-03-23T17:29:56.808Z,17.01
2023-03-23T17:32:27.951Z,16.98
2023-03-23T17:34:59.784Z,16.96
2023-03-23T17:37:30.772Z,16.94
2023-03-23T17:40:01.894Z,16.90
2023-03-23T17:42:32.830Z,16.87
2023-03-23T17:45:03.981Z,16.86
2023-03-23T17:47:35.373Z,16.85
2023-03-23T17:50:11.433Z,16.85
2023-03-23T17:52:43.965Z,16.85
2023-03-23T17:55:16.539Z,16.83
2023-03-23T17:57:47.349Z,16.82
2023-03-23T18:00:19.667Z,16.79
2023-03-23T18:02:50.521Z,16.68
2023-03-23T18:05:22.033Z,16.59
2023-03-23T18:07:53.114Z,16.52
2023-03-23T18:10:24.718Z,16.47
2023-03-23T18:12:55.672Z,16.43
2023-03-23T18:15:28.396Z,16.40
2023-03-23T18:18:00.057Z,16.37
2023-03-23T18:20:32.037Z,16.32
2023-03-23T18:23:04.949Z,16.27
2023-03-23T18:25:36.088Z,16.21
2023-03-23T18:28:07.869Z,16.15
2023-03-23T18:30:40.210Z,16.08
2023-03-23T18:33:11.146Z,16.02
2023-03-23T18:35:42.676Z,15.96
2023-03-23T18:38:14.351Z,15.91
2023-03-23T18:40:45.843Z,15.86
2023-03-23T18:43:16.661Z,15.80
2023-03-23T18:45:51.808Z,15.70
2023-03-23T18:48:22.933Z,15.60
2023-03-23T18:50:55.228Z,15.53
2023-03-23T18:53:26.657Z,15.48
2023-03-23T18:56:04.805Z,15.47
2023-03-23T18:58:35.396Z,15.49
2023-03-23T19:01:07.899Z,15.50
2023-03-23T19:03:41.041Z,15.50
2023-03-23T19:06:15.604Z,15.49
2023-03-23T19:08:47.167Z,15.46
2023-03-23T19:11:18.578Z,15.44
2023-03-23T19:14:00.624Z,15.41
2023-03-23T19:16:36.266Z,15.38
2023-03-23T19:19:09.135Z,15.35
2023-03-23T19:21:41.139Z,15.32
2023-03-23T19:24:12.523Z,15.30
2023-03-23T19:26:44.788Z,15.27
2023-03-23T19:31:51.062Z,15.20
2023-03-23T19:34:22.317Z,15.17
2023-03-23T19:36:56.391Z,15.13
2023-03-23T19:39:36.922Z,15.10
2023-03-23T19:42:08.558Z,15.07
2023-03-23T19:44:39.261Z,15.05
2023-03-23T19:55:19.397Z,14.98
2023-03-23T19:57:50.897Z,14.97
2023-03-23T20:00:24.399Z,14.97
2023-03-23T20:02:56.037Z,14.98
2023-03-23T20:05:27.346Z,14.98
2023-03-23T20:07:58.372Z,14.97
2023-03-23T20:10:30.046Z,14.94
2023-03-23T20:13:01.474Z,14.91
2023-03-23T20:15:32.920Z,14.88
2023-03-23T20:18:04.839Z,14.84
2023-03-23T20:20:37.976Z,14.82
2023-03-23T20:23:08.969Z,14.82
2023-03-23T20:25:40.054Z,14.84
2023-03-23T20:28:11.088Z,14.85
2023-03-23T20:30:42.923Z,14.85
2023-03-23T20:33:14.518Z,14.84
2023-03-23T20:35:45.841Z,14.85
2023-03-23T20:38:18.735Z,14.85
2023-03-23T20:40:49.569Z,14.85
2023-03-23T20:43:20.708Z,14.86
2023-03-23T20:45:51.908Z,14.85
2023-03-23T20:48:22.787Z,14.86
2023-03-23T20:50:54.076Z,14.92
2023-03-23T20:53:25.828Z,14.97
2023-03-23T20:55:57.717Z,15.00
2023-03-23T20:58:29.550Z,15.03
2023-03-23T21:01:01.600Z,15.03
2023-03-23T21:03:34.674Z,15.03
2023-03-23T21:06:07.762Z,15.03
2023-03-23T21:08:37.357Z,15.01
2023-03-23T21:11:09.374Z,15.01
2023-03-23T21:13:40.360Z,15.01
2023-03-23T21:16:11.637Z,15.01
2023-03-23T21:18:42.864Z,15.01
2023-03-23T21:21:15.221Z,15.00
2023-03-23T21:23:52.194Z,14.98
2023-03-23T21:26:24.381Z,14.96
2023-03-23T21:29:00.310Z,14.94
2023-03-23T21:31:33.445Z,14.93
2023-03-23T21:34:04.502Z,14.92
2023-03-23T21:36:35.849Z,14.90
2023-03-23T21:39:07.264Z,14.89
2023-03-23T21:41:41.943Z,14.87
2023-03-23T21:44:13.629Z,14.87
2023-03-23T21:46:44.558Z,14.87
2023-03-23T21:49:15.683Z,14.85
2023-03-23T21:51:49.157Z,14.83
2023-03-23T21:54:21.485Z,14.81
2023-03-23T21:56:52.579Z,14.78
2023-03-23T21:59:23.547Z,14.77
2023-03-23T22:01:55.972Z,14.76
2023-03-23T22:04:28.251Z,14.75
2023-03-23T22:06:59.853Z,14.76
2023-03-23T22:09:31.397Z,14.75
2023-03-23T22:12:02.846Z,14.73
2023-03-23T22:14:34.078Z,14.69
2023-03-23T22:17:05.526Z,14.65
2023-03-23T22:19:36.990Z,14.62
2023-03-23T22:22:09.567Z,14.62
2023-03-23T22:24:40.221Z,14.66
2023-03-23T22:27:11.954Z,14.69
2023-03-23T22:29:42.836Z,14.70
2023-03-23T22:32:13.819Z,14.66
2023-03-23T22:34:45.283Z,14.58
2023-03-23T22:37:16.758Z,14.55
2023-03-23T22:39:47.990Z,14.52
2023-03-23T22:42:19.132Z,14.49
2023-03-23T22:44:49.962Z,14.45
2023-03-23T22:47:21.199Z,14.42
2023-03-23T22:49:52.176Z,14.42
2023-03-23T22:52:22.977Z,14.40
2023-03-23T22:54:54.063Z,14.41
2023-03-23T22:57:27.749Z,14.44
2023-03-23T22:59:58.725Z,14.44
2023-03-23T23:02:29.875Z,14.43
2023-03-23T23:05:00.861Z,14.43
2023-03-23T23:07:31.497Z,14.42
2023-03-23T23:10:02.621Z,14.40
2023-03-23T23:12:35.323Z,14.40
2023-03-23T23:15:07.404Z,14.38
2023-03-23T23:17:39.185Z,14.37
2023-03-23T23:20:13.081Z,14.34
2023-03-23T23:22:44.923Z,14.34
2023-03-23T23:25:16.144Z,14.33
2023-03-23T23:27:46.973Z,14.32
2023-03-23T23:30:18.116Z,14.30
2023-03-23T23:32:52.268Z,14.30
2023-03-23T23:35:23.103Z,14.28
2023-03-23T23:37:53.899Z,14.27
2023-03-23T23:40:24.735Z,14.24
2023-03-23T23:42:55.476Z,14.24
2023-03-23T23:45:26.714Z,14.24
2023-03-23T23:47:57.997Z,14.24
2023-03-23T23:50:29.002Z,14.24
2023-03-23T23:53:00.396Z,14.24
2023-03-23T23:55:31.605Z,14.27
2023-03-23T23:58:02.242Z,14.30
